createdAt,value
2022-09-04T00:04:17.934Z,101198.88
2022-09-04T00:09:34.142Z,101194.88
2022-09-04T00:14:41.696Z,101201.69
2022-09-04T00:20:03.048Z,101200.47
2022-09-04T00:25:37.106Z,101202.66
2022-09-04T00:30:46.418Z,101215.34
2022-09-04T00:35:58.293Z,101218.88
2022-09-04T00:41:32.712Z,101228.13
2022-09-04T00:46:38.084Z,101239.19
2022-09-04T00:52:10.983Z,101234.56
2022-09-04T00:57:21.667Z,101236.38
2022-09-04T01:02:53.386Z,101246.44
2022-09-04T01:08:16.807Z,101253.34
2022-09-04T01:13:33.966Z,101249.66
2022-09-04T01:18:48.191Z,101264.38
2022-09-04T01:24:26.897Z,101275.78
2022-09-04T01:29:43.373Z,101270.66
2022-09-04T01:35:01.964Z,101274.56
2022-09-04T01:40:35.484Z,101278.25
2022-09-04T01:46:15.967Z,101279.31
2022-09-04T01:51:42.931Z,101275.13
2022-09-04T01:56:54.538Z,101276.81
2022-09-04T02:02:25.990Z,101272.28
2022-09-04T02:07:54.928Z,101282.56
2022-09-04T02:13:13.454Z,101288.22
2022-09-04T02:18:22.590Z,101285.66
2022-09-04T02:23:35.265Z,101296.03
2022-09-04T02:28:42.846Z,101298.81
2022-09-04T02:34:13.134Z,101298.09
2022-09-04T02:39:43.939Z,101298.22
2022-09-04T02:45:07.174Z,101303.16
2022-09-04T02:50:26.342Z,101309.38
2022-09-04T02:55:44.519Z,101313.81
2022-09-04T03:01:05.083Z,101307.84
2022-09-04T03:06:14.455Z,101315.78
2022-09-04T03:11:15.983Z,101304.19
2022-09-04T03:16:34.125Z,101304.03
2022-09-04T03:21:46.140Z,101321.91
2022-09-04T03:27:02.671Z,101319.19
2022-09-04T03:32:16.389Z,101326.69
2022-09-04T03:37:38.155Z,101335.47
2022-09-04T03:42:48.623Z,101340.28
2022-09-04T03:48:06.978Z,101339.59
2022-09-04T03:53:20.928Z,101349.28
2022-09-04T03:58:42.982Z,101351.59
2022-09-04T04:03:50.364Z,101361.31
2022-09-04T04:09:14.947Z,101358.25
2022-09-04T04:14:54.491Z,101356.84
2022-09-04T04:20:07.549Z,101364.63
2022-09-04T04:25:29.702Z,101367.50
2022-09-04T04:30:48.070Z,101367.50
2022-09-04T04:36:17.595Z,101374.19
2022-09-04T04:42:03.302Z,101375.69
2022-09-04T04:47:27.385Z,101381.72
2022-09-04T04:52:44.666Z,101384.50
2022-09-04T04:57:53.426Z,101390.59
2022-09-04T05:03:20.078Z,101398.16
2022-09-04T05:08:55.755Z,101403.75
2022-09-04T05:14:02.570Z,101412.34
2022-09-04T05:19:23.268Z,101424.91
2022-09-04T05:24:32.447Z,101436.25
2022-09-04T05:29:57.044Z,101444.88
2022-09-04T05:35:13.697Z,101439.38
2022-09-04T05:40:23.495Z,101446.66
2022-09-04T05:45:46.953Z,101462.88
2022-09-04T05:51:25.017Z,101460.13
2022-09-04T05:56:45.178Z,101465.09
2022-09-04T06:02:05.313Z,101464.63
2022-09-04T06:07:18.969Z,101475.56
2022-09-04T06:12:45.123Z,101475.75
2022-09-04T06:17:52.751Z,101476.22
2022-09-04T06:23:23.068Z,101473.41
2022-09-04T06:29:05.461Z,101468.84
2022-09-04T06:34:34.747Z,101481.22
2022-09-04T06:40:14.001Z,101475.63
2022-09-04T06:45:30.143Z,101482.28
2022-09-04T06:50:49.824Z,101492.09
2022-09-04T06:56:09.932Z,101496.78
2022-09-04T07:01:49.164Z,101505.78
2022-09-04T07:06:52.891Z,101509.16
2022-09-04T07:12:14.361Z,101514.44
2022-09-04T07:17:42.640Z,101519.44
2022-09-04T07:22:56.803Z,101526.69
2022-09-04T07:28:01.732Z,101526.03
2022-09-04T07:33:14.039Z,101529.53
2022-09-04T07:38:25.075Z,101532.47
2022-09-04T07:43:54.646Z,101526.25
2022-09-04T07:49:12.942Z,101532.72
2022-09-04T07:54:53.152Z,101537.88
2022-09-04T07:59:54.803Z,101549.31
2022-09-04T08:05:11.915Z,101564.41
2022-09-04T08:10:51.427Z,101562.03
2022-09-04T08:16:11.808Z,101570.59
2022-09-04T08:21:31.367Z,101576.97
2022-09-04T08:26:36.099Z,101586.66
2022-09-04T08:31:42.952Z,101587.91
2022-09-04T08:37:04.325Z,101591.31
2022-09-04T08:42:43.834Z,101592.34
2022-09-04T08:48:03.907Z,101598.38
2022-09-04T08:53:15.565Z,101605.38
2022-09-04T08:58:49.800Z,101603.66
2022-09-04T09:04:15.352Z,101601.72
2022-09-04T09:09:39.318Z,101607.09
2022-09-04T09:15:05.801Z,101608.53
2022-09-04T09:20:28.555Z,101591.44
2022-09-04T09:25:44.081Z,101607.16
2022-09-04T09:31:07.135Z,101606.56
2022-09-04T09:36:26.876Z,101612.84
2022-09-04T09:41:47.338Z,101610.22
2022-09-04T09:47:07.899Z,101617.00
2022-09-04T09:52:47.784Z,101608.50
2022-09-04T09:58:28.544Z,101607.16
2022-09-04T10:03:39.255Z,101612.19
2022-09-04T10:09:04.967Z,101608.72
2022-09-04T10:14:39.484Z,101607.25
2022-09-04T10:20:09.803Z,101608.78
2022-09-04T10:25:35.235Z,101613.81
2022-09-04T10:30:55.416Z,101622.66
2022-09-04T10:36:21.950Z,101619.50
2022-09-04T10:41:34.940Z,101616.75
2022-09-04T10:47:08.172Z,101622.66
2022-09-04T10:52:40.033Z,101624.28
2022-09-04T10:57:50.631Z,101625.03
2022-09-04T11:03:21.255Z,101631.59
2022-09-04T11:08:43.099Z,101632.97
2022-09-04T11:14:07.756Z,101626.84
2022-09-04T11:19:47.179Z,101632.13
2022-09-04T11:25:01.819Z,101632.59
2022-09-04T11:30:33.209Z,101626.97
2022-09-04T11:36:07.797Z,101629.53
2022-09-04T11:41:25.035Z,101622.97
2022-09-04T11:46:47.538Z,101631.81
2022-09-04T11:52:13.927Z,101631.25
2022-09-04T11:57:51.608Z,101628.47
2022-09-04T12:03:35.308Z,101622.38
2022-09-04T12:09:10.887Z,101624.09
2022-09-04T12:14:56.430Z,101618.63
2022-09-04T12:20:24.318Z,101622.91
2022-09-04T12:25:46.290Z,101630.94
2022-09-04T12:30:57.462Z,101638.22
2022-09-04T12:36:23.987Z,101646.72
2022-09-04T12:41:58.302Z,101643.84
2022-09-04T12:47:19.787Z,101644.00
2022-09-04T12:52:47.964Z,101643.91
2022-09-04T12:58:02.776Z,101646.72
2022-09-04T13:03:29.728Z,101644.59
2022-09-04T13:08:37.442Z,101653.84
2022-09-04T13:14:00.138Z,101660.31
2022-09-04T13:19:02.267Z,101665.84
2022-09-04T13:24:12.106Z,101659.00
2022-09-04T13:29:25.937Z,101666.09
2022-09-04T13:35:02.185Z,101661.31
2022-09-04T13:40:20.924Z,101669.06
2022-09-04T13:45:33.012Z,101671.63
2022-09-04T13:50:42.627Z,101663.91
2022-09-04T13:55:54.502Z,101662.88
2022-09-04T14:01:03.024Z,101662.97
2022-09-04T14:06:10.384Z,101664.34
2022-09-04T14:11:20.819Z,101671.41
2022-09-04T14:16:25.789Z,101665.06
2022-09-04T14:21:49.157Z,101668.59
2022-09-04T14:27:12.367Z,101678.25
2022-09-04T14:32:57.808Z,101675.09
2022-09-04T14:38:19.284Z,101679.34
2022-09-04T14:43:40.276Z,101674.28
2022-09-04T14:49:01.119Z,101670.88
2022-09-04T14:54:04.151Z,101657.91
2022-09-04T14:59:17.320Z,101667.66
2022-09-04T15:04:27.197Z,101668.25
2022-09-04T15:09:35.189Z,101664.44
2022-09-04T15:14:40.658Z,101656.00
2022-09-04T15:19:56.640Z,101649.34
2022-09-04T15:25:57.690Z,101655.91
2022-09-04T15:31:37.001Z,101656.69
2022-09-04T15:36:39.489Z,101652.31
2022-09-04T15:41:50.206Z,101658.47
2022-09-04T15:47:36.654Z,101664.75
2022-09-04T15:53:14.146Z,101670.13
2022-09-04T15:58:19.883Z,101662.72
2022-09-04T16:03:42.034Z,101655.22
2022-09-04T16:08:56.965Z,101660.38
2022-09-04T16:14:17.721Z,101656.97
2022-09-04T16:20:03.798Z,101663.03
2022-09-04T16:25:33.036Z,101658.44
2022-09-04T16:30:35.832Z,101655.47
2022-09-04T16:35:43.149Z,101655.47
2022-09-04T16:41:04.476Z,101649.31
2022-09-04T16:46:09.938Z,101658.53
2022-09-04T16:51:40.002Z,101653.69
2022-09-04T16:57:12.322Z,101659.34
2022-09-04T17:02:28.025Z,101659.88
2022-09-04T17:07:43.184Z,101654.41
2022-09-04T17:12:58.618Z,101656.91
2022-09-04T17:18:09.612Z,101644.09
2022-09-04T17:29:02.089Z,101655.78
2022-09-04T17:40:44.118Z,101658.47
2022-09-04T17:46:36.857Z,101660.50
2022-09-04T17:51:40.789Z,101675.09
2022-09-04T17:57:32.436Z,101666.44
2022-09-04T18:02:44.618Z,101674.28
2022-09-04T18:08:09.697Z,101680.88
2022-09-04T18:13:45.832Z,101681.03
2022-09-04T18:18:59.475Z,101680.34
2022-09-04T18:24:12.603Z,101687.44
2022-09-04T18:31:15.906Z,101694.91
2022-09-04T18:37:41.426Z,101701.53
2022-09-04T18:46:15.124Z,101708.66
2022-09-04T18:50:40.371Z,101713.78
2022-09-04T18:51:52.916Z,101720.16
2022-09-04T18:57:06.761Z,101728.94
2022-09-04T19:02:21.783Z,101727.09
2022-09-04T19:07:32.988Z,101725.25
2022-09-04T19:12:51.697Z,101738.19
2022-09-04T19:18:00.858Z,101724.03
2022-09-04T19:23:15.507Z,101736.97
2022-09-04T19:28:27.437Z,101723.78
2022-09-04T19:33:48.117Z,101736.34
2022-09-04T19:45:55.903Z,101733.91
2022-09-04T19:46:25.787Z,101734.03
2022-09-04T19:53:19.867Z,101740.47
2022-09-04T19:55:24.821Z,101734.75
2022-09-04T20:00:42.716Z,101724.50
2022-09-04T20:06:07.659Z,101738.63
2022-09-04T20:11:36.559Z,101744.13
2022-09-04T20:16:48.434Z,101743.13
2022-09-04T20:22:01.357Z,101750.06
2022-09-04T20:27:31.193Z,101750.38
2022-09-04T20:32:53.953Z,101745.63
2022-09-04T20:38:22.846Z,101739.50
2022-09-04T20:44:03.571Z,101734.34
2022-09-04T20:52:52.612Z,101744.09
2022-09-04T20:54:56.027Z,101753.09
2022-09-04T21:03:20.724Z,101744.69
2022-09-04T21:06:10.446Z,101746.72
2022-09-04T21:11:39.192Z,101740.19
2022-09-04T21:17:34.118Z,101746.50
2022-09-04T21:23:05.562Z,101756.88
2022-09-04T21:28:55.999Z,101753.56
2022-09-04T21:34:43.193Z,101766.22
2022-09-04T21:40:19.592Z,101758.47
2022-09-04T21:45:55.647Z,101763.72
2022-09-04T21:51:00.160Z,101765.72
2022-09-04T21:57:14.934Z,101762.78
2022-09-04T22:02:45.891Z,101770.72
2022-09-04T22:09:38.384Z,101775.16
2022-09-04T22:13:42.342Z,101780.75
2022-09-04T22:19:29.852Z,101782.94
2022-09-04T22:24:32.313Z,101780.56
2022-09-04T22:29:55.577Z,101784.50
2022-09-04T22:35:17.109Z,101775.50
2022-09-04T22:40:32.976Z,101775.63
2022-09-04T22:46:08.707Z,101774.59
2022-09-04T22:51:48.233Z,101778.38
2022-09-04T22:56:59.322Z,101784.66
2022-09-04T23:03:09.674Z,101780.81
2022-09-04T23:13:42.280Z,101784.25
2022-09-04T23:14:05.335Z,101779.72
2022-09-04T23:26:32.481Z,101770.06
2022-09-04T23:26:58.571Z,101762.97
2022-09-04T23:30:42.585Z,101763.19
2022-09-04T23:36:01.863Z,101759.84
2022-09-04T23:41:34.502Z,101759.00
2022-09-04T23:47:04.011Z,101754.75
2022-09-04T23:52:48.830Z,101744.88
2022-09-04T23:58:47.226Z,101759.63
